Pagina principale
METAR-TAF:

METAR-TAF

Aeroporti :

Morristown, New Jersey, Stati Uniti

latitudine: 40-48N, longitudine: 074-25W, altezza: 57 m

Osservazione

Il bollettino è stato emesso 49 minuti fa, alle 21:55 UTC
Vento 15 kt da nord-ovest con raffiche fino a 25 kt
Temperature 1°C
Umidità 64%
Pressione 1017 hPa
Visibilità: 16.1 km
Nuvoloso ad un'altezza di 3800 ft

METAR: KMMU 182155Z 31015G25KT 10SM BKN038 01/M05 A3003

Ora: 17:44 (22:44 UTC)


TAF: mancante

Osservazioni e previsioni meteorologiche di più di 4000 aeroporti (messaggi METAR e TAF).

Le stazioni disponibili sono rappresentate dai dischi gialli e rossi sulla carta.

Puntare il mouse per vedere il nome della stazione.

Clicca sopra per visualizzare le osservazioni e previsioni meteorologiche.

Per cambiare la mappa : fare clic sui pulsanti verdi con una croce nera per ingrandire, il pulsante verde con un trattino per diminuire, o sulla freccia verde per le mappe adiacenti.


METAR-TAF: